Seabourn Quest — C6YZ5 — position and weather

sailwx.info

Track history (hours):
 
Tides and Currents Weather Stations Pressure Air Temp Water Temp Dewpoint Dewpoint Depression Visibility Wind Speed Wind Dir Waves Ship Positions

Seabourn Quest

Last reported at 2017-Feb-10 00:06 UTC. Time now 2017-Feb-19 18:41 UTC.
Position S 54°55' W 067°15'.
Warning: this ship's position is 9 days out of date.

Length 197 m; draft 6.6 m.

Type: Ship. MMSI: 311038900.

Date/timePositionNaut miles runAvg speedWind from/ knotsBaromVisibWave heightAir tempDewpointWater temp
2017-Feb-10 00:06S 54°55' W 067°15'917.3
2017-Feb-09 23:33S 54°55' W 067°31'1818.5
2017-Feb-09 22:33S 54°52' W 068°02'9 8.7
2017-Feb-09 21:28S 54°49' W 068°18'0 0.0
2017-Feb-09 20:29S 54°49' W 068°18'0 0.0
2017-Feb-09 19:31S 54°49' W 068°18'0 0.0
2017-Feb-09 18:31S 54°49' W 068°18'0 0.0
2017-Feb-09 17:31S 54°49' W 068°18'0 0.0
2017-Feb-09 16:30S 54°49' W 068°18'0 0.0
2017-Feb-09 15:30S 54°49' W 068°18'0 0.0
2017-Feb-09 14:30S 54°49' W 068°18'1 0.8
2017-Feb-09 13:34S 54°49' W 068°17'5 4.9
2017-Feb-09 12:34S 54°53' W 068°20'1817.5
2017-Feb-09 11:33S 54°58' W 068°50'  
2017-Feb-03 02:27S 32°60' W 071°38'1 0.1
2017-Feb-02 09:27S 33°01' W 071°37'  
Track history (hours):
 
Tides and Currents Weather Stations Pressure Air Temp Water Temp Dewpoint Dewpoint Depression Visibility Wind Speed Wind Dir Waves Ship Positions

Seabourn Quest

Last reported at 2017-Feb-10 00:06 UTC. Time now 2017-Feb-19 18:41 UTC.
Position S 54°55' W 067°15'.
Warning: this ship's position is 9 days out of date.

Length 197 m; draft 6.6 m.

Type: Ship. MMSI: 311038900.

Date/timePositionNaut miles runAvg speedWind from/ knotsBaromVisibWave heightAir tempDewpointWater temp
2017-Feb-10 00:06S 54°55' W 067°15'917.3
2017-Feb-09 23:33S 54°55' W 067°31'1818.5
2017-Feb-09 22:33S 54°52' W 068°02'9 8.7
2017-Feb-09 21:28S 54°49' W 068°18'0 0.0
2017-Feb-09 20:29S 54°49' W 068°18'0 0.0
2017-Feb-09 19:31S 54°49' W 068°18'0 0.0
2017-Feb-09 18:31S 54°49' W 068°18'0 0.0
2017-Feb-09 17:31S 54°49' W 068°18'0 0.0
2017-Feb-09 16:30S 54°49' W 068°18'0 0.0
2017-Feb-09 15:30S 54°49' W 068°18'0 0.0
2017-Feb-09 14:30S 54°49' W 068°18'1 0.8
2017-Feb-09 13:34S 54°49' W 068°17'5 4.9
2017-Feb-09 12:34S 54°53' W 068°20'1817.5
2017-Feb-09 11:33S 54°58' W 068°50'  
2017-Feb-03 02:27S 32°60' W 071°38'1 0.1
2017-Feb-02 09:27S 33°01' W 071°37'  

Dump ship's entire track history